Flight Track Log - Related Links

Times and Time Zones

All times are in EDT time to prevent confusion due to time zone crossing. See the N5167L flight status page for this flight to view local times or setup timezone preferences in your user account.

Time Position Orientation Groundspeed Altitude Reporting Facility
EDT Latitude Longitude Course Direction KTS MPH feet Rate Location/Type
Sat 11:10:16 AM 36.0167 -86.5000 90° East 88 101 1,400  Level Nashville TRACON
Sat 11:11:10 AM 36.0167 -86.4667 90° East 91 105 2,200 889 Climbing Nashville TRACON
Sat 11:12:04 AM 36.0167 -86.4333 90° East 97 112 3,000 778 Climbing Nashville TRACON
Sat 11:12:58 AM 36.0500 -86.4333 360° North 112 129 3,600 556 Climbing Nashville TRACON
Sat 11:13:52 AM 36.0667 -86.4500 321° Northwest 117 135 4,000 263 Climbing Nashville TRACON
Sat 11:14:52 AM 36.1000 -86.4833 321° Northwest 131 151 4,100 50 Climbing Nashville TRACON
Sat 11:15:52 AM 36.1167 -86.5167 302° West 134 154 4,100  Level Nashville TRACON
Sat 11:16:52 AM 36.1333 -86.5500 302° West 127 146 4,100 -45 Level Nashville TRACON
Sat 11:18:04 AM 36.1500 -86.6000 292° West 128 147 4,000 -45 Descending Nashville TRACON
Sat 11:19:05 AM 36.1667 -86.6333 302° West 122 140 4,000  Level Nashville TRACON
Sat 11:20:05 AM 36.1833 -86.6833 292° West 126 145 4,000  Level Nashville TRACON
Sat 11:20:59 AM 36.1833 -86.7167 270° West 121 139 4,000  Level Nashville TRACON
Sat 11:21:59 AM 36.2000 -86.7500 302° West 125 144 4,000  Level Nashville TRACON
Sat 11:22:59 AM 36.2167 -86.8000 292° West 129 148 4,000  Level Nashville TRACON
Sat 11:23:59 AM 36.2167 -86.8333 270° West 127 146 4,000  Level Nashville TRACON
Sat 11:25:05 AM 36.2333 -86.8833 292° West 124 143 4,000  Level Nashville TRACON
Sat 11:26:11 AM 36.2333 -86.9333 270° West 128 147 4,000 45 Level Nashville TRACON
Sat 11:27:17 AM 36.2333 -86.9833 270° West 130 150 4,100 34 Climbing Nashville TRACON
Sat 11:29:08 AM 36.2378 -87.0583 274° West 122 140 4,100 -35 Level Memphis Center
Sat 11:30:08 AM 36.2408 -87.0967 276° West 122 140 4,000 -100 Descending Memphis Center
Sat 11:31:08 AM 36.2397 -87.1353 268° West 117 135 3,900  Descending Memphis Center
Sat 11:32:08 AM 36.2386 -87.1739 268° West 117 135 4,000 50 Climbing Memphis Center
Sat 11:33:08 AM 36.2417 -87.2125 276° West 117 135 4,000  Level Memphis Center
Sat 11:34:08 AM 36.2447 -87.2508 276° West 122 140 4,000  Level Memphis Center
Sat 11:35:08 AM 36.2458 -87.2919 272° West 122 140 4,000 -50 Level Memphis Center
Sat 11:36:08 AM 36.2489 -87.3306 276° West 116 133 3,900  Descending Memphis Center
Sat 11:37:08 AM 36.2497 -87.3667 272° West 116 133 4,000 50 Climbing Memphis Center
Sat 11:38:08 AM 36.2506 -87.4050 272° West 121 139 4,000  Level Memphis Center
Sat 11:39:08 AM 36.2494 -87.4411 268° West 121 139 4,000  Level Memphis Center
Sat 11:40:08 AM 36.2503 -87.4797 272° West 121 139 4,000  Level Memphis Center
Sat 11:41:08 AM 36.2531 -87.5156 276° West 121 139 4,000  Level Memphis Center
Sat 11:42:08 AM 36.2539 -87.5542 272° West 121 139 4,000  Level Memphis Center
Sat 11:43:08 AM 36.2528 -87.5903 268° West 121 139 4,000  Level Memphis Center
Sat 11:44:08 AM 36.2558 -87.6339 275° West 121 139 4,000  Level Memphis Center
Sat 11:45:08 AM 36.2567 -87.6700 272° West 121 139 4,000  Level Memphis Center
Sat 11:46:08 AM 36.2575 -87.7086 272° West 121 139 4,000  Level Memphis Center
Sat 11:47:08 AM 36.2603 -87.7444 276° West 121 139 4,000  Level Memphis Center
Sat 11:48:08 AM 36.2589 -87.7831 267° West 121 139 4,000  Level Memphis Center
Sat 11:49:08 AM 36.2578 -87.8219 268° West 121 139 4,000  Level Memphis Center
Sat 11:50:08 AM 36.2606 -87.8578 276° West 116 133 4,000 -50 Level Memphis Center
Sat 11:51:08 AM 36.2614 -87.8964 272° West 116 133 3,900  Descending Memphis Center
Sat 11:52:08 AM 36.2619 -87.9322 271° West 116 133 4,000 100 Climbing Memphis Center
Sat 11:53:08 AM 36.2625 -87.9606 271° West 109 125 4,100  Climbing Memphis Center
Sat 11:54:08 AM 36.2653 -87.9992 275° West 109 125 4,000 -50 Descending Memphis Center
Sat 11:55:08 AM 36.2681 -88.0378 275° West 109 125 4,000  Level Memphis Center
Sat 11:56:08 AM 36.2667 -88.0739 267° West 109 125 4,000  Level Memphis Center
Sat 11:57:08 AM 36.2694 -88.1097 276° West 109 125 4,000  Level Memphis Center
Sat 11:58:08 AM 36.2764 -88.1481 283° West 109 125 4,000  Level Memphis Center
Sat 11:59:08 AM 36.2750 -88.1842 267° West 109 125 4,000  Level Memphis Center
Sat 12:00:08 PM 36.2756 -88.2178 271° West 103 119 4,000  Level Memphis Center
Sat 12:01:08 PM 36.2761 -88.2536 271° West 103 119 4,000 50 Level Memphis Center
Sat 12:02:08 PM 36.2789 -88.2869 276° West 103 119 4,100 350 Climbing Memphis Center
Sat 12:03:08 PM 36.2794 -88.3153 271° West 103 119 4,700 400 Climbing Memphis Center
Sat 12:04:08 PM 36.2778 -88.3489 266° West 98 113 4,900 100 Climbing Memphis Center
Sat 12:05:08 PM 36.2783 -88.3825 271° West 104 120 4,900 50 Level Memphis Center
Sat 12:06:08 PM 36.2789 -88.4183 271° West 104 120 5,000  Climbing Memphis Center
Sat 12:07:08 PM 36.2794 -88.4569 271° West 104 120 4,900  Descending Memphis Center
Sat 12:08:08 PM 36.2800 -88.4906 271° West 104 120 5,000 100 Climbing Memphis Center
Sat 12:09:08 PM 36.2764 -88.5267 263° West 104 120 5,100  Climbing Memphis Center
Sat 12:10:08 PM 36.2811 -88.5600 280° West 104 120 5,000 -50 Descending Memphis Center
Sat 12:11:08 PM 36.2794 -88.5933 266° West 104 120 5,000  Level Memphis Center
Sat 12:12:08 PM 36.2800 -88.6269 271° West 104 120 5,000  Level Memphis Center
Sat 12:13:08 PM 36.2803 -88.6603 271° West 104 120 5,000  Level Memphis Center
Sat 12:14:08 PM 36.2808 -88.6914 271° West 104 120 5,000  Level Memphis Center
Sat 12:15:08 PM 36.2811 -88.7247 271° West 104 120 5,000  Level Memphis Center
Sat 12:16:08 PM 36.2817 -88.7556 271° West 104 120 5,000  Level Memphis Center
Sat 12:17:08 PM 36.2819 -88.7892 271° West 104 120 5,000  Level Memphis Center
Sat 12:18:08 PM 36.2825 -88.8200 271° West 104 120 5,000 -50 Level Memphis Center
Sat 12:19:08 PM 36.2828 -88.8558 271° West 104 120 4,900  Descending Memphis Center
Sat 12:20:08 PM 36.2833 -88.8844 271° West 104 120 5,000 50 Climbing Memphis Center
Sat 12:21:08 PM 36.2856 -88.9150 275° West 99 114 5,000  Level Memphis Center
Sat 12:22:08 PM 36.2839 -88.9461 266° West 99 114 5,000  Level Memphis Center
Sat 12:23:08 PM 36.2844 -88.9794 271° West 99 114 5,000  Level Memphis Center
Sat 12:24:08 PM 36.2847 -89.0106 271° West 99 114 5,000  Level Memphis Center
Sat 12:25:08 PM 36.2831 -89.0464 267° West 99 114 5,000  Level Memphis Center
Sat 12:26:08 PM 36.2833 -89.0800 271° West 104 120 5,000  Level Memphis Center
Sat 12:27:08 PM 36.2858 -89.1133 275° West 104 120 5,000  Level Memphis Center
Sat 12:28:08 PM 36.2839 -89.1469 266° West 104 120 5,000  Level Memphis Center
Sat 12:29:08 PM 36.2844 -89.1803 271° West 104 120 5,000  Level Memphis Center
Sat 12:30:08 PM 36.2847 -89.2139 271° West 104 120 5,000  Level Memphis Center
Sat 12:31:08 PM 36.2850 -89.2472 271° West 104 120 5,000  Level Memphis Center
Sat 12:32:08 PM 36.2831 -89.2783 266° West 104 120 5,000  Level Memphis Center
Sat 12:33:08 PM 36.2856 -89.3142 275° West 104 120 5,000  Level Memphis Center
Sat 12:34:08 PM 36.2836 -89.3478 266° West 104 120 5,000  Level Memphis Center
Sat 12:35:08 PM 36.2839 -89.3811 271° West 104 120 5,000  Level Memphis Center
Sat 12:36:08 PM 36.2864 -89.4147 275° West 104 120 5,000  Level Memphis Center
Sat 12:37:08 PM 36.2844 -89.4506 266° West 104 120 5,000  Level Memphis Center
Sat 12:38:08 PM 36.2869 -89.4842 275° West 104 120 5,000  Level Memphis Center
Sat 12:39:08 PM 36.2869 -89.5203 270° West 104 120 5,000  Level Memphis Center
Sat 12:40:08 PM 36.2872 -89.5486 271° West 104 120 5,000 50 Level Memphis Center
Sat 12:41:08 PM 36.2894 -89.5844 274° West 104 120 5,100 200 Climbing Memphis Center
Sat 12:42:08 PM 36.2878 -89.6181 266° West 104 120 5,400 450 Climbing Memphis Center
Sat 12:43:08 PM 36.2900 -89.6489 275° West 104 120 6,000 300 Climbing Memphis Center
Sat 12:44:08 PM 36.2881 -89.6825 266° West 99 114 6,000  Level Memphis Center
Sat 12:45:08 PM 36.2903 -89.7133 275° West 99 114 6,000  Level Memphis Center
Sat 12:46:08 PM 36.2906 -89.7442 271° West 104 120 6,000  Level Memphis Center
Sat 12:47:08 PM 36.2928 -89.7775 275° West 104 120 6,000  Level Memphis Center
Sat 12:48:08 PM 36.2928 -89.8086 270° West 104 120 6,000  Level Memphis Center
Sat 12:49:08 PM 36.2908 -89.8419 266° West 104 120 6,000 50 Level Memphis Center
Sat 12:50:08 PM 36.2911 -89.8728 271° West 104 120 6,100 100 Climbing Memphis Center
Sat 12:51:08 PM 36.2911 -89.9039 270° West 104 120 6,200  Climbing Memphis Center
Sat 12:52:08 PM 36.2914 -89.9372 271° West 104 120 6,100 -50 Descending Memphis Center
Sat 12:53:08 PM 36.2914 -89.9681 270° West 104 120 6,100  Level Memphis Center
Sat 12:54:08 PM 36.2914 -90.0017 270° West 104 120 6,100 200 Level Memphis Center
Sat 12:55:08 PM 36.2894 -90.0300 265° West 98 113 6,500 500 Climbing Memphis Center
Sat 12:56:08 PM 36.2894 -90.0583 270° West 93 107 7,100 350 Climbing Memphis Center
Sat 12:57:08 PM 36.2897 -90.0892 271° West 88 101 7,200 300 Climbing Memphis Center
Sat 12:58:08 PM 36.2939 -90.1200 280° West 88 101 7,700 400 Climbing Memphis Center
Sat 12:59:08 PM 36.2919 -90.1483 265° West 88 101 8,000 150 Climbing Memphis Center
Sat 01:00:08 PM 36.2919 -90.1819 270° West 93 107 8,000 50 Level Memphis Center
Sat 01:01:08 PM 36.2919 -90.2153 270° West 98 113 8,100 100 Climbing Memphis Center
Sat 01:02:08 PM 36.2919 -90.2489 270° West 104 120 8,200 150 Climbing Memphis Center
Sat 01:03:08 PM 36.2942 -90.2797 275° West 104 120 8,400 300 Climbing Memphis Center
Sat 01:04:08 PM 36.2942 -90.3081 270° West 97 112 8,800 300 Climbing Memphis Center
Sat 01:05:08 PM 36.2919 -90.3414 265° West 97 112 9,000 100 Climbing Memphis Center
Sat 01:06:08 PM 36.2942 -90.3800 274° West 108 124 9,000  Level Memphis Center
Sat 01:07:08 PM 36.2919 -90.4214 266° West 113 130 9,000  Level Memphis Center
Sat 01:08:08 PM 36.2942 -90.4600 274° West 118 136 9,000 -50 Level Memphis Center
Sat 01:09:08 PM 36.2961 -90.4986 274° West 118 136 8,900 50 Descending Memphis Center
Sat 01:10:08 PM 36.2939 -90.5372 266° West 118 136 9,100 100 Climbing Memphis Center
Sat 01:11:08 PM 36.2939 -90.5758 270° West 118 136 9,100  Level Memphis Center
Sat 01:12:08 PM 36.2939 -90.6144 270° West 118 136 9,100 -50 Level Memphis Center
Sat 01:13:08 PM 36.2939 -90.6556 270° West 123 142 9,000  Descending Memphis Center
Sat 01:14:08 PM 36.2958 -90.6944 274° West 123 142 9,100 50 Climbing Memphis Center
Sat 01:15:08 PM 36.2956 -90.7328 269° West 123 142 9,100  Level Memphis Center
Sat 01:16:08 PM 36.2975 -90.7714 274° West 123 142 9,100 50 Level Memphis Center
Sat 01:17:08 PM 36.2994 -90.8103 274° West 123 142 9,200 50 Climbing Memphis Center
Sat 01:18:08 PM 36.3139 -90.8514 294° West 123 142 9,200 -50 Level Memphis Center
Sat 01:19:08 PM 36.3242 -90.8875 289° West 123 142 9,100 -50 Descending Memphis Center
Sat 01:20:08 PM 36.3344 -90.9264 288° West 123 142 9,100  Level Memphis Center
Sat 01:21:08 PM 36.3469 -90.9650 292° West 123 142 9,100 100 Level Memphis Center
Sat 01:22:08 PM 36.3761 -90.9497 23° Northeast 91 105 9,300 -100 Climbing Memphis Center
Sat 01:23:08 PM 36.3617 -90.9317 135° Southeast 24 28 8,900 -3,150 Descending Memphis Center
Sat 01:24:08 PM 36.3656 -90.9653 278° West 38 44 3,000 -2,950 Descending Memphis Center
Sat 01:25:08 PM 36.3781 -91.0039 292° West 89 102 3,000 1,000 Level Memphis Center
Sat 01:26:08 PM 36.3819 -91.0428 277° West 114 131 5,000 1,000 Climbing Memphis Center
Sat 01:27:08 PM 36.3858 -91.0761 278° West 114 131 5,000  Level Memphis Center
Sat 01:28:08 PM 36.1511 -90.9378 155° Southeast 114 131 5,000  Level Memphis Center
Sat 01:29:08 PM 36.1511 -90.9378 58° Northeast 114 131 5,000  Level Memphis Center
Sat 01:30:08 PM 36.1219 -90.9325 172° South 114 131 5,000  Level Memphis Center
Sat 01:31:08 PM 36.0906 -90.9272 172° South 114 131 5,000  Level Memphis Center
Sat 01:32:08 PM 36.0594 -90.9192 168° South 114 131 5,000  Level Memphis Center
Sat 01:34:08 PM 36.0594 -90.9192 31° Northeast 114 131 5,000  Level Memphis Center
Sat 01:36:08 PM 36.0594 -90.9192 31° Northeast 114 131 5,000  Level Memphis Center
Sat 01:38:08 PM 36.0594 -90.9192 31° Northeast 114 131 5,000  Level Memphis Center

Login

Don't have an account? Register now (free) for customized features, flight alerts, and more!